createdAt,value
2023-07-25T00:00:32.623Z,68.70
2023-07-25T00:03:00.833Z,68.90
2023-07-25T00:05:29.221Z,69.10
2023-07-25T00:07:58.684Z,69.20
2023-07-25T00:10:26.807Z,69.60
2023-07-25T00:12:56.275Z,69.60
2023-07-25T00:15:24.540Z,69.80
2023-07-25T00:17:52.748Z,70.00
2023-07-25T00:20:21.100Z,70.20
2023-07-25T00:22:49.227Z,70.10
2023-07-25T00:25:19.823Z,69.90
2023-07-25T00:27:48.059Z,69.90
2023-07-25T00:30:16.299Z,69.80
2023-07-25T00:32:44.519Z,70.00
2023-07-25T00:35:12.685Z,70.30
2023-07-25T00:37:40.789Z,70.60
2023-07-25T00:40:10.029Z,70.80
2023-07-25T00:42:39.546Z,71.10
2023-07-25T00:45:09.297Z,71.20
2023-07-25T00:47:37.634Z,70.80
2023-07-25T00:50:06.543Z,70.60
2023-07-25T00:52:34.770Z,70.70
2023-07-25T00:55:04.345Z,70.90
2023-07-25T00:57:32.937Z,71.30
2023-07-25T01:00:02.593Z,71.70
2023-07-25T01:02:30.815Z,72.40
2023-07-25T01:04:59.051Z,72.10
2023-07-25T01:07:27.394Z,72.10
2023-07-25T01:09:55.535Z,72.00
2023-07-25T01:12:25.490Z,71.90
2023-07-25T01:14:53.738Z,72.10
2023-07-25T01:17:25.157Z,72.50
2023-07-25T01:19:54.653Z,73.20
2023-07-25T01:22:23.885Z,73.50
2023-07-25T01:24:57.401Z,73.70
2023-07-25T01:27:25.516Z,74.00
2023-07-25T01:29:53.627Z,73.30
2023-07-25T01:32:21.975Z,73.40
2023-07-25T01:34:50.135Z,73.70
2023-07-25T01:37:18.258Z,74.00
2023-07-25T01:39:46.397Z,74.20
2023-07-25T01:42:15.917Z,74.20
2023-07-25T01:44:44.077Z,74.40
2023-07-25T01:47:12.313Z,74.20
2023-07-25T01:49:40.481Z,74.30
2023-07-25T01:52:09.458Z,74.40
2023-07-25T01:54:37.581Z,74.60
2023-07-25T01:57:06.380Z,74.60
2023-07-25T01:59:35.896Z,74.60
2023-07-25T02:02:04.071Z,74.70
2023-07-25T02:04:32.246Z,74.60
2023-07-25T02:07:00.416Z,74.50
2023-07-25T02:09:28.587Z,74.50
2023-07-25T02:11:56.735Z,74.60
2023-07-25T02:14:24.896Z,74.70
2023-07-25T02:16:54.656Z,74.80
2023-07-25T02:19:22.807Z,75.00
2023-07-25T02:21:50.941Z,74.90
2023-07-25T02:24:19.119Z,75.00
2023-07-25T02:26:47.292Z,74.90
2023-07-25T02:29:15.413Z,75.10
2023-07-25T02:31:43.557Z,75.00
2023-07-25T02:34:13.595Z,74.80
2023-07-25T02:36:41.754Z,74.90
2023-07-25T02:39:09.991Z,74.60
2023-07-25T02:41:38.192Z,74.60
2023-07-25T02:44:06.746Z,74.80
2023-07-25T02:46:34.964Z,74.80
2023-07-25T02:49:03.170Z,74.90
2023-07-25T02:51:32.955Z,75.00
2023-07-25T02:54:01.210Z,75.30
2023-07-25T02:56:29.915Z,75.20
2023-07-25T02:58:58.156Z,75.10
2023-07-25T03:01:26.496Z,75.20
2023-07-25T03:03:54.658Z,75.40
2023-07-25T03:06:22.765Z,75.50
2023-07-25T03:08:52.289Z,75.80
2023-07-25T03:11:20.407Z,76.10
2023-07-25T03:13:48.549Z,76.00
2023-07-25T03:16:16.761Z,76.10
2023-07-25T03:18:44.970Z,76.10
2023-07-25T03:21:13.148Z,76.10
2023-07-25T03:23:41.257Z,76.10
2023-07-25T03:26:10.785Z,76.00
2023-07-25T03:28:39.039Z,76.10
2023-07-25T03:31:07.212Z,75.90
2023-07-25T03:33:35.353Z,76.00
2023-07-25T03:36:03.721Z,76.00
2023-07-25T03:38:31.825Z,76.00
2023-07-25T03:40:59.963Z,76.10
2023-07-25T03:43:29.540Z,76.10
2023-07-25T03:45:57.812Z,76.20
2023-07-25T03:48:26.010Z,76.10
2023-07-25T03:50:54.147Z,76.20
2023-07-25T03:53:22.631Z,76.30
2023-07-25T03:55:50.860Z,76.30
2023-07-25T03:58:18.967Z,76.30
2023-07-25T04:00:48.468Z,76.20
2023-07-25T04:03:16.617Z,76.40
2023-07-25T04:05:44.816Z,76.30
2023-07-25T04:08:12.941Z,76.40
2023-07-25T04:10:41.057Z,76.50
2023-07-25T04:13:09.449Z,76.50
2023-07-25T04:15:37.568Z,76.60
2023-07-25T04:18:07.083Z,76.80
2023-07-25T04:20:36.288Z,76.80
2023-07-25T04:23:04.412Z,76.80
2023-07-25T04:25:32.532Z,77.00
2023-07-25T04:28:00.638Z,77.00
2023-07-25T04:30:28.792Z,77.20
2023-07-25T04:32:56.907Z,77.10
2023-07-25T04:35:26.517Z,77.10
2023-07-25T04:37:54.693Z,77.20
2023-07-25T04:40:22.875Z,77.20
2023-07-25T04:42:50.980Z,77.20
2023-07-25T04:45:19.262Z,77.20
2023-07-25T04:47:47.390Z,77.30
2023-07-25T04:50:15.514Z,77.40
2023-07-25T04:52:45.016Z,77.50
2023-07-25T04:55:13.189Z,77.80
2023-07-25T04:57:41.334Z,77.70
2023-07-25T05:00:10.361Z,77.70
2023-07-25T05:02:38.543Z,77.60
2023-07-25T05:05:07.639Z,77.50
2023-07-25T05:07:35.890Z,77.70
2023-07-25T05:10:06.115Z,77.60
2023-07-25T05:12:34.242Z,77.70
2023-07-25T05:15:02.379Z,77.60
2023-07-25T05:17:30.543Z,77.70
2023-07-25T05:19:58.688Z,77.70
2023-07-25T05:22:26.815Z,77.70
2023-07-25T05:24:55.211Z,77.60
2023-07-25T05:27:24.922Z,77.50
2023-07-25T05:29:53.118Z,77.60
2023-07-25T05:32:23.451Z,77.60
2023-07-25T05:34:51.654Z,77.90
2023-07-25T05:37:20.419Z,77.80
2023-07-25T05:39:48.504Z,77.80
2023-07-25T05:42:16.650Z,77.90
2023-07-25T05:44:46.150Z,77.90
2023-07-25T05:47:14.277Z,78.00
2023-07-25T05:49:42.576Z,77.80
2023-07-25T05:52:10.700Z,78.60
2023-07-25T05:54:38.801Z,77.90
2023-07-25T05:57:08.438Z,77.90
2023-07-25T05:59:36.605Z,78.10
2023-07-25T06:02:06.673Z,78.00
2023-07-25T06:04:34.790Z,78.10
2023-07-25T06:07:02.948Z,78.00
2023-07-25T06:09:31.078Z,77.90
2023-07-25T06:12:00.856Z,77.70
2023-07-25T06:14:28.987Z,77.70
2023-07-25T06:16:57.149Z,77.70
2023-07-25T06:19:26.725Z,77.70
2023-07-25T06:21:54.930Z,77.90
2023-07-25T06:24:23.105Z,77.90
2023-07-25T06:26:51.274Z,77.80
2023-07-25T06:29:19.401Z,77.70
2023-07-25T06:31:47.580Z,77.60
2023-07-25T06:34:15.677Z,77.40
2023-07-25T06:36:45.229Z,77.20
2023-07-25T06:39:13.434Z,77.20
2023-07-25T06:41:41.619Z,77.00
2023-07-25T06:44:09.797Z,77.00
2023-07-25T06:46:38.080Z,76.80
2023-07-25T06:49:06.281Z,76.60
2023-07-25T06:51:34.519Z,76.60
2023-07-25T06:54:04.112Z,76.50
2023-07-25T06:56:32.229Z,76.30
2023-07-25T06:59:01.914Z,76.10
2023-07-25T07:01:30.494Z,76.30
2023-07-25T07:03:58.897Z,76.70
2023-07-25T07:06:27.000Z,76.60
2023-07-25T07:08:55.104Z,76.40
2023-07-25T07:11:24.784Z,76.30
2023-07-25T07:13:53.184Z,76.40
2023-07-25T07:16:21.350Z,76.40
2023-07-25T07:18:49.485Z,76.40
2023-07-25T07:21:17.614Z,76.50
2023-07-25T07:23:53.205Z,76.60
2023-07-25T07:26:30.965Z,77.00
2023-07-25T07:29:04.534Z,77.00
2023-07-25T07:31:35.604Z,76.80
2023-07-25T07:34:14.501Z,76.70
2023-07-25T07:36:42.900Z,77.60
2023-07-25T07:39:11.224Z,77.10
2023-07-25T07:41:40.928Z,77.20
2023-07-25T07:44:09.303Z,77.70
2023-07-25T07:46:37.891Z,77.70
2023-07-25T07:49:06.170Z,77.80
2023-07-25T07:51:34.611Z,78.00
2023-07-25T07:54:03.161Z,78.20
2023-07-25T07:56:31.315Z,78.30
2023-07-25T07:59:00.895Z,78.50
2023-07-25T08:01:30.166Z,78.60
2023-07-25T08:03:58.812Z,78.60
2023-07-25T08:06:26.960Z,78.80
2023-07-25T08:08:55.341Z,79.00
2023-07-25T08:11:23.813Z,79.00
2023-07-25T08:13:52.136Z,79.10
2023-07-25T08:16:25.924Z,79.30
2023-07-25T08:18:54.334Z,79.60
2023-07-25T08:21:22.444Z,79.60
2023-07-25T08:23:50.721Z,79.60
2023-07-25T08:26:18.912Z,79.50
2023-07-25T08:28:48.564Z,79.80
2023-07-25T08:31:16.788Z,80.20
2023-07-25T08:33:46.363Z,80.00
2023-07-25T08:36:14.643Z,80.40
2023-07-25T08:38:43.488Z,80.30
2023-07-25T08:41:14.089Z,80.30
2023-07-25T08:43:44.559Z,80.70
2023-07-25T08:46:14.723Z,80.70
2023-07-25T08:48:45.034Z,80.80
2023-07-25T08:51:20.154Z,80.80
2023-07-25T08:53:54.904Z,81.20
2023-07-25T08:56:24.369Z,81.20
2023-07-25T08:58:53.236Z,80.90
2023-07-25T09:01:22.529Z,81.00
2023-07-25T09:03:54.476Z,81.10
2023-07-25T09:06:25.797Z,81.40
2023-07-25T09:08:53.972Z,81.20
2023-07-25T09:11:22.752Z,81.30
2023-07-25T09:13:51.354Z,81.30
2023-07-25T09:16:19.840Z,81.00
2023-07-25T09:18:48.378Z,80.90
2023-07-25T09:21:18.526Z,80.80
2023-07-25T09:23:53.267Z,81.10
2023-07-25T09:26:24.651Z,81.20
2023-07-25T09:28:55.930Z,81.00
2023-07-25T09:31:28.199Z,81.00
2023-07-25T09:33:57.654Z,80.80
2023-07-25T09:36:31.855Z,80.80
2023-07-25T09:39:00.510Z,81.00
2023-07-25T09:41:31.416Z,80.50
2023-07-25T09:44:06.284Z,80.30
2023-07-25T09:46:34.499Z,80.40
2023-07-25T09:49:04.122Z,80.00
2023-07-25T09:51:34.079Z,80.00
2023-07-25T09:54:06.540Z,79.80
2023-07-25T09:56:36.102Z,79.50
2023-07-25T09:59:08.454Z,79.20
2023-07-25T10:01:39.234Z,79.30
2023-07-25T10:04:08.488Z,79.50
2023-07-25T10:06:38.711Z,79.70
2023-07-25T10:09:07.790Z,79.70
2023-07-25T10:11:38.720Z,79.80
2023-07-25T10:14:08.899Z,79.70
2023-07-25T10:16:39.616Z,79.70
2023-07-25T10:19:08.606Z,79.80
2023-07-25T10:21:50.298Z,79.70
2023-07-25T10:24:19.689Z,80.00
2023-07-25T10:26:55.459Z,79.80
2023-07-25T10:29:47.876Z,80.40
2023-07-25T10:32:17.272Z,80.30
2023-07-25T10:34:50.138Z,80.10
2023-07-25T10:37:24.162Z,80.30
2023-07-25T10:40:06.193Z,80.70
2023-07-25T10:42:59.996Z,81.20
2023-07-25T10:45:56.615Z,81.70
2023-07-25T10:48:35.872Z,82.20
2023-07-25T10:51:07.805Z,82.00
2023-07-25T10:53:38.157Z,80.80
2023-07-25T10:56:17.239Z,80.60
2023-07-25T10:59:06.056Z,80.70
2023-07-25T11:01:37.436Z,80.30
2023-07-25T11:04:28.648Z,79.70
2023-07-25T11:06:58.680Z,79.50
2023-07-25T11:09:29.157Z,78.80
2023-07-25T11:11:58.129Z,78.40
2023-07-25T11:14:26.292Z,78.30
2023-07-25T11:16:56.050Z,78.00
2023-07-25T11:19:28.622Z,77.90
2023-07-25T11:21:57.042Z,77.90
2023-07-25T11:24:25.276Z,77.60
2023-07-25T11:26:54.813Z,77.50
2023-07-25T11:29:24.051Z,77.00
2023-07-25T11:31:52.350Z,76.80
2023-07-25T11:34:21.929Z,76.70
2023-07-25T11:36:50.185Z,76.50
2023-07-25T11:39:19.736Z,77.00
2023-07-25T11:41:48.164Z,76.70
2023-07-25T11:44:19.189Z,76.70
2023-07-25T11:46:50.675Z,77.10
2023-07-25T11:49:31.883Z,77.10
2023-07-25T11:52:08.866Z,76.00
2023-07-25T11:54:37.128Z,75.50
2023-07-25T11:57:07.704Z,74.70
2023-07-25T11:59:43.438Z,74.20
2023-07-25T12:02:13.951Z,72.80
2023-07-25T12:04:46.000Z,71.80
2023-07-25T12:07:15.029Z,71.00
2023-07-25T12:09:52.608Z,71.10
2023-07-25T12:12:21.612Z,69.10
2023-07-25T12:14:58.461Z,69.60
2023-07-25T12:17:44.657Z,68.00
2023-07-25T12:20:17.625Z,67.10
2023-07-25T12:22:46.379Z,66.80
2023-07-25T12:25:18.879Z,67.40
2023-07-25T12:27:48.459Z,66.30
2023-07-25T12:30:18.444Z,65.70
2023-07-25T12:32:46.717Z,64.60
2023-07-25T12:35:15.031Z,62.90
2023-07-25T12:37:43.157Z,62.50
2023-07-25T12:40:11.902Z,62.10
2023-07-25T12:42:40.008Z,60.60
2023-07-25T12:45:11.084Z,60.20
2023-07-25T12:47:41.241Z,59.80
2023-07-25T12:50:10.953Z,59.40
2023-07-25T12:52:39.391Z,59.60
2023-07-25T12:55:08.374Z,59.50
2023-07-25T12:57:36.658Z,59.50
2023-07-25T13:00:08.312Z,59.40
2023-07-25T13:02:37.995Z,58.10
2023-07-25T13:05:09.259Z,57.30
2023-07-25T13:07:37.573Z,56.60
2023-07-25T13:10:08.020Z,56.90
2023-07-25T13:12:36.714Z,56.60
2023-07-25T13:15:05.938Z,56.10
2023-07-25T13:17:34.475Z,56.40
2023-07-25T13:20:05.588Z,56.10
2023-07-25T13:22:35.147Z,56.10
2023-07-25T13:25:04.047Z,56.50
2023-07-25T13:27:32.326Z,57.60
2023-07-25T13:30:01.546Z,58.20
2023-07-25T13:32:29.909Z,58.70
2023-07-25T13:34:58.095Z,58.50
2023-07-25T13:37:26.212Z,58.30
2023-07-25T13:39:55.733Z,58.20
2023-07-25T13:42:24.505Z,57.60
2023-07-25T13:44:52.660Z,57.90
2023-07-25T13:47:20.815Z,56.80
2023-07-25T13:49:49.047Z,56.20
2023-07-25T13:52:17.441Z,56.50
2023-07-25T13:54:45.727Z,56.00
2023-07-25T13:57:15.313Z,56.60
2023-07-25T13:59:43.482Z,56.70
2023-07-25T14:02:11.798Z,56.80
2023-07-25T14:04:41.062Z,57.40
2023-07-25T14:07:09.381Z,57.20
2023-07-25T14:09:37.513Z,56.80
2023-07-25T14:12:07.015Z,56.60
2023-07-25T14:14:37.194Z,55.80
2023-07-25T14:17:06.928Z,55.80
2023-07-25T14:19:35.168Z,57.30
2023-07-25T14:22:03.310Z,56.50
2023-07-25T14:24:32.000Z,55.80
2023-07-25T14:27:00.168Z,55.80
2023-07-25T14:29:28.313Z,55.70
2023-07-25T14:31:59.357Z,55.80
2023-07-25T14:34:27.640Z,56.10
2023-07-25T14:36:55.767Z,55.80
2023-07-25T14:39:23.963Z,55.80
2023-07-25T14:41:52.188Z,55.60
2023-07-25T14:44:20.708Z,55.40
2023-07-25T14:46:48.942Z,55.30
2023-07-25T14:49:18.548Z,55.20
2023-07-25T14:51:46.827Z,53.90
2023-07-25T14:54:14.945Z,53.90
2023-07-25T14:56:43.083Z,52.80
2023-07-25T14:59:12.984Z,52.20
2023-07-25T15:01:41.194Z,51.60
2023-07-25T15:04:09.360Z,51.80
2023-07-25T15:06:38.849Z,51.70
2023-07-25T15:09:07.048Z,51.80
2023-07-25T15:11:35.736Z,51.90
2023-07-25T15:14:03.924Z,51.40
2023-07-25T15:16:32.841Z,50.90
2023-07-25T15:19:01.329Z,50.80
2023-07-25T15:21:29.656Z,50.60
2023-07-25T15:23:59.399Z,50.50
2023-07-25T15:26:27.632Z,50.00
2023-07-25T15:28:56.080Z,50.10
2023-07-25T15:31:24.247Z,50.20
2023-07-25T15:33:52.497Z,50.00
2023-07-25T15:36:20.624Z,49.80
2023-07-25T15:38:49.168Z,49.30
2023-07-25T15:41:18.730Z,49.00
2023-07-25T15:43:47.052Z,49.00
2023-07-25T15:46:15.234Z,48.90
2023-07-25T15:48:43.366Z,48.30
2023-07-25T15:51:11.558Z,48.30
2023-07-25T15:53:40.755Z,49.10
2023-07-25T15:56:08.877Z,48.90
2023-07-25T15:58:38.433Z,49.30
2023-07-25T16:01:06.913Z,49.00
2023-07-25T16:03:35.164Z,49.40
2023-07-25T16:06:03.423Z,49.50
2023-07-25T16:08:31.620Z,49.60
2023-07-25T16:10:59.736Z,49.60
2023-07-25T16:13:28.105Z,49.90
2023-07-25T16:15:57.612Z,50.20
2023-07-25T16:18:25.718Z,50.60
2023-07-25T16:20:53.903Z,51.10
2023-07-25T16:23:22.044Z,51.00
2023-07-25T16:25:51.787Z,51.30
2023-07-25T16:28:18.898Z,51.60
2023-07-25T16:30:47.124Z,51.40
2023-07-25T16:33:16.641Z,51.40
2023-07-25T16:35:44.877Z,51.50
2023-07-25T16:38:13.267Z,51.40
2023-07-25T16:40:41.620Z,51.40
2023-07-25T16:43:09.799Z,51.10
2023-07-25T16:45:37.918Z,51.10
2023-07-25T16:48:06.616Z,51.10
2023-07-25T16:50:36.343Z,51.50
2023-07-25T16:53:06.696Z,50.70
2023-07-25T16:55:35.186Z,50.90
2023-07-25T16:58:03.367Z,50.70
2023-07-25T17:00:31.635Z,50.70
2023-07-25T17:02:59.838Z,50.70
2023-07-25T17:05:28.093Z,50.60
2023-07-25T17:07:58.561Z,50.70
2023-07-25T17:10:26.801Z,50.50
2023-07-25T17:12:54.949Z,50.80
2023-07-25T17:15:23.330Z,50.70
2023-07-25T17:17:51.608Z,50.90
2023-07-25T17:20:22.159Z,51.10
2023-07-25T17:22:51.184Z,51.30
2023-07-25T17:25:20.764Z,51.40
2023-07-25T17:27:48.893Z,51.40
2023-07-25T17:30:18.073Z,51.60
2023-07-25T17:32:47.049Z,51.80
2023-07-25T17:35:23.977Z,51.90
2023-07-25T17:37:52.479Z,52.00
2023-07-25T17:40:22.029Z,52.10
2023-07-25T17:42:50.254Z,52.20
2023-07-25T17:45:19.106Z,52.60
2023-07-25T17:47:47.279Z,52.50
2023-07-25T17:50:15.541Z,52.60
2023-07-25T17:52:43.700Z,52.80
2023-07-25T17:55:11.873Z,52.90
2023-07-25T17:57:41.429Z,53.10
2023-07-25T18:00:10.590Z,53.10
2023-07-25T18:02:38.856Z,53.30
2023-07-25T18:05:07.750Z,53.40
2023-07-25T18:07:36.206Z,53.60
2023-07-25T18:10:04.431Z,53.70
2023-07-25T18:12:32.580Z,53.90
2023-07-25T18:15:02.242Z,54.20
2023-07-25T18:17:30.413Z,54.40
2023-07-25T18:19:58.645Z,54.30
2023-07-25T18:22:28.898Z,54.40
2023-07-25T18:24:59.811Z,54.60
2023-07-25T18:27:27.979Z,54.70
2023-07-25T18:29:56.563Z,54.90
2023-07-25T18:32:26.158Z,55.10
2023-07-25T18:34:54.362Z,55.30
2023-07-25T18:37:22.529Z,55.30
2023-07-25T18:39:50.629Z,55.30
2023-07-25T18:42:22.408Z,55.50
2023-07-25T18:44:50.534Z,55.70
2023-07-25T18:47:33.622Z,55.70
2023-07-25T18:50:04.685Z,55.90
2023-07-25T18:52:32.891Z,56.10
2023-07-25T18:55:01.053Z,56.20
2023-07-25T18:57:29.368Z,56.20
2023-07-25T18:59:58.223Z,56.10
2023-07-25T19:02:26.459Z,56.10
2023-07-25T19:04:55.047Z,56.10
2023-07-25T19:07:24.642Z,56.00
2023-07-25T19:09:53.063Z,55.90
2023-07-25T19:12:22.464Z,55.90
2023-07-25T19:14:50.826Z,55.90
2023-07-25T19:17:19.049Z,56.00
2023-07-25T19:19:47.290Z,56.00
2023-07-25T19:22:15.799Z,55.90
2023-07-25T19:24:47.753Z,55.80
2023-07-25T19:27:16.805Z,55.80
2023-07-25T19:29:45.078Z,55.80
2023-07-25T19:32:14.966Z,55.80
2023-07-25T19:34:43.405Z,56.00
2023-07-25T19:37:11.633Z,56.10
2023-07-25T19:39:39.986Z,56.20
2023-07-25T19:42:10.637Z,56.40
2023-07-25T19:44:39.002Z,56.40
2023-07-25T19:47:07.424Z,56.60
2023-07-25T19:49:35.979Z,56.60
2023-07-25T19:52:04.227Z,56.70
2023-07-25T19:54:32.389Z,56.80
2023-07-25T19:57:00.761Z,56.60
2023-07-25T19:59:30.236Z,56.50
2023-07-25T20:01:58.350Z,56.30
2023-07-25T20:04:26.505Z,56.40
2023-07-25T20:06:54.904Z,56.40
2023-07-25T20:09:23.497Z,56.70
2023-07-25T20:11:51.679Z,57.00
2023-07-25T20:14:20.582Z,56.80
2023-07-25T20:16:51.973Z,56.80
2023-07-25T20:19:24.120Z,56.70
2023-07-25T20:21:52.805Z,56.70
2023-07-25T20:24:20.932Z,56.80
2023-07-25T20:26:49.249Z,56.90
2023-07-25T20:29:17.370Z,57.00
2023-07-25T20:31:45.597Z,57.00
2023-07-25T20:34:15.474Z,57.10
2023-07-25T20:36:43.595Z,57.30
2023-07-25T20:39:11.814Z,57.40
2023-07-25T20:41:39.991Z,57.60
2023-07-25T20:44:08.210Z,57.70
2023-07-25T20:46:36.698Z,57.80
2023-07-25T20:49:05.283Z,58.00
2023-07-25T20:51:34.828Z,58.00
2023-07-25T20:54:03.303Z,58.00
2023-07-25T20:56:31.846Z,58.00
2023-07-25T20:59:00.931Z,58.10
2023-07-25T21:01:29.144Z,58.00
2023-07-25T21:03:57.361Z,58.00
2023-07-25T21:06:26.742Z,58.20
2023-07-25T21:08:56.294Z,58.20
2023-07-25T21:11:24.770Z,58.20
2023-07-25T21:13:53.007Z,58.10
2023-07-25T21:16:22.449Z,58.10
2023-07-25T21:18:50.861Z,58.20
2023-07-25T21:21:19.371Z,58.20
2023-07-25T21:23:47.529Z,58.40
2023-07-25T21:26:17.045Z,58.50
2023-07-25T21:28:45.274Z,58.70
2023-07-25T21:31:13.427Z,58.80
2023-07-25T21:33:41.570Z,58.90
2023-07-25T21:36:11.774Z,59.00
2023-07-25T21:38:41.498Z,59.20
2023-07-25T21:41:13.314Z,59.40
2023-07-25T21:43:43.439Z,59.50
2023-07-25T21:46:11.969Z,59.70
2023-07-25T21:48:40.165Z,59.80
2023-07-25T21:51:08.956Z,60.00
2023-07-25T21:53:37.268Z,60.10
2023-07-25T21:56:05.884Z,60.30
2023-07-25T21:58:34.054Z,60.50
2023-07-25T22:01:03.693Z,60.80
2023-07-25T22:03:32.977Z,61.00
2023-07-25T22:06:01.661Z,61.10
2023-07-25T22:08:29.825Z,61.20
2023-07-25T22:10:58.064Z,61.40
2023-07-25T22:13:27.664Z,61.60
2023-07-25T22:15:55.866Z,61.70
2023-07-25T22:18:25.397Z,61.90
2023-07-25T22:20:53.610Z,62.10
2023-07-25T22:23:22.195Z,62.20
2023-07-25T22:25:50.387Z,62.30
2023-07-25T22:28:18.702Z,62.40
2023-07-25T22:30:46.889Z,62.50
2023-07-25T22:33:15.018Z,62.70
2023-07-25T22:35:44.557Z,62.70
2023-07-25T22:38:12.681Z,63.00
2023-07-25T22:40:41.941Z,63.00
2023-07-25T22:43:10.080Z,63.10
2023-07-25T22:45:38.224Z,63.20
2023-07-25T22:48:07.009Z,63.30
2023-07-25T22:50:35.280Z,63.40
2023-07-25T22:53:04.811Z,63.50
2023-07-25T22:55:34.497Z,63.80
2023-07-25T22:58:02.682Z,63.80
2023-07-25T23:00:30.807Z,63.90
2023-07-25T23:02:59.045Z,63.90
2023-07-25T23:05:27.237Z,63.90
2023-07-25T23:07:55.364Z,63.90
2023-07-25T23:10:24.904Z,64.00
2023-07-25T23:12:53.085Z,64.20
2023-07-25T23:15:21.250Z,64.20
2023-07-25T23:17:49.438Z,64.30
2023-07-25T23:20:18.019Z,64.40
2023-07-25T23:22:46.176Z,64.50
2023-07-25T23:25:14.295Z,64.60
2023-07-25T23:27:43.817Z,64.70
2023-07-25T23:30:13.145Z,65.00
2023-07-25T23:32:41.507Z,65.00
2023-07-25T23:35:10.728Z,65.00
2023-07-25T23:37:38.853Z,65.10
2023-07-25T23:40:09.360Z,65.10
2023-07-25T23:42:37.552Z,65.20
2023-07-25T23:45:08.234Z,65.10
2023-07-25T23:47:36.403Z,65.40
2023-07-25T23:50:06.241Z,65.20
2023-07-25T23:52:35.094Z,65.40
2023-07-25T23:55:03.461Z,65.40
2023-07-25T23:57:31.596Z,65.40
2023-07-25T23:59:59.757Z,65.50
